Strona główna
METAR-TAF:

METAR-TAF

Lotnisko :

Platforma wiertnicza

Troll C, Norwegia

Szerokość geograficzna: 60-53-09N, Długość geograficzna: 3-36-35E, wysokość: 20 m

Aktualna obserwacja pogody

Raport powstał 42 minut temu, godzina 21:20 UTC
Wiatr 19 kt od południe
Temperatura 6°C
Wilgotność 93%
Ciśnienie 1015 hPa
Widzialność 10 km lub więcej

METAR: ENQC 042120Z AUTO 17019KT 9999NDV FEW007/// BKN019/// BKN046/// 06/05 Q1015 W///S5

czas: 00:02 (22:02 UTC)


TAF: brakujący

Obserwacja i prognoza pogody dla ponad 4000 lotnisk (raport METAR i TAF).

Dostępne stacje oznaczono żółtymi i czerwonymi punktami na mapie.

Najedź kursorem aby zobaczyć nazwę stacji.

Kliknij aby zobaczyć obserwacje i prognozy pogody.

Aby zmienić mapę: kliknij na zielony przycisk z czarnym krzyżykiem, aby powiększyć; na zielony przycisk z myślnikiem, aby pomniejszyć; na zielone strzałki, aby przejść do map sąsiednich.


METAR-TAF: